Time;durP1;ratioP1;P1;durP2;ratioP2;P2;SDS_P1;SDS_P2;PMS_P1;PMS_P2;Temp;Humidity;BMP_temperature;BMP_pressure;BME280_temperature;BME280_humidity;BME280_pressure;Samples;Min_cycle;Max_cycle;Signal;HPM_P1;HPM_P2
2021/04/28 00:00:10;;;;;;;8.23;5.53;;;;;;;6.47;50.30;101010.88;5037166;28;20428;-70
2021/04/28 00:02:38;;;;;;;10.60;5.30;;;;;;;6.42;50.39;101012.72;5036759;28;20057;-71
2021/04/28 00:05:06;;;;;;;9.70;5.65;;;;;;;6.34;50.92;101010.13;5040506;28;20091;-71
2021/04/28 00:07:34;;;;;;;10.05;5.50;;;;;;;6.32;50.64;101008.41;5037352;28;20223;-70
2021/04/28 00:10:01;;;;;;;9.00;4.93;;;;;;;6.29;50.78;101008.44;5040312;28;20108;-70
2021/04/28 00:12:28;;;;;;;8.63;5.88;;;;;;;6.28;50.57;101004.03;5034353;28;20100;-71
2021/04/28 00:14:56;;;;;;;9.48;5.18;;;;;;;6.23;50.54;101000.56;5037066;28;20168;-71
2021/04/28 00:17:23;;;;;;;6.70;5.15;;;;;;;6.20;51.29;101005.88;5037797;28;20631;-71
2021/04/28 00:19:50;;;;;;;8.55;5.50;;;;;;;6.18;51.15;101011.22;5039221;28;20057;-71
2021/04/28 00:22:18;;;;;;;8.90;5.65;;;;;;;6.13;51.59;100997.13;5039018;28;20064;-70
2021/04/28 00:24:45;;;;;;;10.40;5.65;;;;;;;6.06;51.80;100992.78;5037022;28;20490;-70
2021/04/28 00:27:11;;;;;;;8.05;5.13;;;;;;;5.97;51.58;100988.47;5038659;28;20072;-70
2021/04/28 00:29:38;;;;;;;8.43;5.15;;;;;;;5.96;52.16;100992.91;5038017;28;20118;-70
2021/04/28 00:32:07;;;;;;;10.95;5.30;;;;;;;5.90;51.95;100989.41;5034629;28;20092;-70
2021/04/28 00:34:34;;;;;;;8.88;5.30;;;;;;;5.90;51.74;100990.28;5041024;28;20068;-70
2021/04/28 00:37:01;;;;;;;10.07;5.70;;;;;;;5.92;51.94;100991.13;5038490;28;20166;-70
2021/04/28 00:39:28;;;;;;;8.90;5.30;;;;;;;5.88;52.25;100983.25;5038072;28;20103;-70
2021/04/28 00:41:57;;;;;;;10.05;5.97;;;;;;;5.86;51.58;100982.41;5037414;28;20049;-70
2021/04/28 00:44:24;;;;;;;9.38;5.40;;;;;;;5.88;51.61;100983.25;5039675;28;20053;-70
2021/04/28 00:47:05;;;;;;;12.38;6.22;;;;;;;5.88;51.93;100983.25;5039221;28;20114;-70
2021/04/28 00:49:33;;;;;;;8.02;5.28;;;;;;;5.87;51.52;100977.06;5034052;28;20061;-70
2021/04/28 00:52:00;;;;;;;9.88;6.18;;;;;;;5.85;51.77;100972.69;5039590;28;20356;-75
2021/04/28 00:54:27;;;;;;;9.27;4.85;;;;;;;5.77;51.89;100965.72;5053207;28;20379;-74
2021/04/28 00:56:56;;;;;;;8.75;5.82;;;;;;;5.79;52.02;100969.22;5039972;28;20374;-76
2021/04/28 00:59:24;;;;;;;9.07;5.00;;;;;;;5.80;52.21;100967.44;5036461;28;20065;-76
2021/04/28 01:01:51;;;;;;;9.95;5.32;;;;;;;5.80;51.89;100965.66;5056629;28;20057;-76
2021/04/28 01:04:18;;;;;;;9.73;5.72;;;;;;;5.73;52.68;100956.03;5042578;28;20140;-76
2021/04/28 01:06:47;;;;;;;14.02;5.82;;;;;;;5.73;52.44;100961.31;5045203;28;20064;-76
2021/04/28 01:09:14;;;;;;;10.68;5.53;;;;;;;5.69;53.00;100948.16;5039320;28;20158;-71
2021/04/28 01:11:42;;;;;;;12.32;6.40;;;;;;;5.65;53.09;100955.22;5041582;28;20161;-70
2021/04/28 01:14:10;;;;;;;8.77;5.90;;;;;;;5.53;53.65;100945.63;5038087;28;20214;-70
2021/04/28 01:16:37;;;;;;;8.85;5.63;;;;;;;5.55;54.04;100949.16;5042524;28;20057;-71
2021/04/28 01:19:06;;;;;;;9.10;5.78;;;;;;;5.52;54.28;100948.31;5043404;28;20068;-70
2021/04/28 01:21:34;;;;;;;9.90;5.22;;;;;;;5.47;54.33;100945.69;5041040;28;20421;-71
2021/04/28 01:24:02;;;;;;;9.30;5.35;;;;;;;5.47;54.93;100952.78;5043093;28;20516;-71
2021/04/28 01:26:30;;;;;;;10.70;6.28;;;;;;;5.38;55.21;100951.94;5040815;28;20064;-71
2021/04/28 01:28:59;;;;;;;12.02;6.30;;;;;;;5.37;55.28;100944.91;5042139;28;20061;-70
2021/04/28 01:31:29;;;;;;;9.82;6.13;;;;;;;5.32;55.63;100943.19;5039830;28;20450;-71
2021/04/28 01:33:59;;;;;;;10.43;5.68;;;;;;;5.33;55.36;100943.19;5042547;28;20060;-71
2021/04/28 01:36:32;;;;;;;11.82;5.82;;;;;;;5.29;55.35;100937.91;5039343;28;20223;-71
2021/04/28 01:39:06;;;;;;;10.57;5.38;;;;;;;5.29;55.87;100944.06;5039737;28;21312;-71
2021/04/28 01:41:37;;;;;;;9.63;5.90;;;;;;;5.26;56.59;100944.13;5040599;28;20071;-71
2021/04/28 01:44:06;;;;;;;11.18;6.45;;;;;;;5.21;56.32;100943.25;5040716;28;20083;-71
2021/04/28 01:46:33;;;;;;;8.63;5.53;;;;;;;5.17;56.45;100937.13;5042374;28;20156;-71
2021/04/28 01:49:01;;;;;;;12.32;5.68;;;;;;;5.13;57.21;100935.41;5041332;28;20057;-71
2021/04/28 01:51:30;;;;;;;8.70;6.22;;;;;;;5.09;57.51;100941.63;5038041;28;20080;-71
2021/04/28 01:54:00;;;;;;;9.75;5.82;;;;;;;5.04;58.18;100941.66;5034224;28;20135;-71
2021/04/28 01:56:30;;;;;;;11.57;6.55;;;;;;;5.01;57.62;100946.09;5039460;28;20057;-71
2021/04/28 01:58:58;;;;;;;11.65;6.65;;;;;;;5.01;59.09;100932.84;5041978;28;20076;-72
2021/04/28 02:01:27;;;;;;;13.57;6.00;;;;;;;4.95;57.81;100935.53;5037446;28;20076;-71
2021/04/28 02:03:55;;;;;;;10.13;6.07;;;;;;;4.89;58.11;100933.81;5043907;28;20080;-71
2021/04/28 02:06:25;;;;;;;10.75;6.35;;;;;;;4.82;58.71;100935.63;5037037;28;20067;-72
2021/04/28 02:08:53;;;;;;;11.57;6.22;;;;;;;4.85;58.93;100932.06;5041717;28;20045;-72
2021/04/28 02:11:22;;;;;;;12.18;6.70;;;;;;;4.77;59.21;100932.16;5037822;28;20677;-71
2021/04/28 02:13:52;;;;;;;9.65;6.20;;;;;;;4.77;58.89;100934.78;5040589;28;20057;-72
2021/04/28 02:16:21;;;;;;;9.88;6.28;;;;;;;4.73;59.38;100930.38;5040922;28;20628;-72
2021/04/28 02:18:49;;;;;;;11.18;6.55;;;;;;;4.65;59.52;100925.16;5052399;28;20384;-71
2021/04/28 02:21:16;;;;;;;11.52;6.80;;;;;;;4.65;59.41;100930.44;5043426;28;20156;-72
2021/04/28 02:23:44;;;;;;;11.60;6.22;;;;;;;4.60;59.79;100920.81;5040782;28;20463;-72
2021/04/28 02:26:12;;;;;;;10.13;6.40;;;;;;;4.54;60.14;100931.41;5040837;28;20331;-71
2021/04/28 02:28:39;;;;;;;13.60;7.22;;;;;;;4.49;60.04;100927.03;5034645;28;20053;-71
2021/04/28 02:31:07;;;;;;;12.45;7.35;;;;;;;4.44;61.03;100928.81;5045781;28;20389;-71
2021/04/28 02:33:34;;;;;;;11.93;6.75;;;;;;;4.37;60.23;100913.00;5037268;28;20062;-72
2021/04/28 02:36:02;;;;;;;10.05;6.40;;;;;;;4.30;60.77;100923.59;5042803;28;20081;-71
2021/04/28 02:38:34;;;;;;;10.85;7.07;;;;;;;4.32;60.57;100917.44;5037225;28;20061;-71
2021/04/28 02:41:03;;;;;;;10.30;6.55;;;;;;;4.30;61.28;100909.50;5039169;28;20057;-70
2021/04/28 02:43:31;;;;;;;10.68;6.47;;;;;;;4.27;61.02;100914.81;5039461;28;20057;-71
2021/04/28 02:46:00;;;;;;;11.20;6.80;;;;;;;4.25;61.53;100908.66;5040510;28;20065;-76
2021/04/28 02:48:29;;;;;;;12.80;6.88;;;;;;;4.24;61.50;100913.06;5040868;28;20067;-76
2021/04/28 02:50:56;;;;;;;11.25;7.75;;;;;;;4.19;61.10;100906.94;5040571;28;20069;-75
2021/04/28 02:53:27;;;;;;;9.75;5.88;;;;;;;4.16;61.95;100912.22;5039827;28;20071;-71
2021/04/28 02:55:56;;;;;;;10.45;6.28;;;;;;;4.08;61.34;100916.66;5052171;28;20092;-71
2021/04/28 02:58:24;;;;;;;10.25;6.40;;;;;;;4.02;62.21;100908.75;5041090;28;20056;-71
2021/04/28 03:00:53;;;;;;;10.05;6.05;;;;;;;3.99;62.19;100903.50;5039507;28;20095;-71
2021/04/28 03:03:20;;;;;;;11.82;6.63;;;;;;;3.99;61.84;100911.41;5034973;28;20063;-71
2021/04/28 03:05:50;;;;;;;10.00;6.07;;;;;;;3.98;61.86;100901.72;5037113;28;20550;-71
2021/04/28 03:08:17;;;;;;;10.98;6.70;;;;;;;3.93;61.47;100902.63;5039079;28;20151;-70
2021/04/28 03:10:46;;;;;;;11.63;7.75;;;;;;;3.97;62.51;100903.50;5055714;28;20060;-71
2021/04/28 03:13:13;;;;;;;12.70;7.15;;;;;;;3.97;62.08;100908.78;5036961;28;20057;-70
2021/04/28 03:15:40;;;;;;;10.63;6.78;;;;;;;3.95;62.08;100904.38;5041043;28;20247;-75
2021/04/28 03:18:07;;;;;;;11.05;6.65;;;;;;;3.88;62.29;100896.50;5053659;28;20154;-75
2021/04/28 03:20:35;;;;;;;10.43;6.72;;;;;;;3.83;61.83;100893.00;5037019;28;20068;-76
2021/04/28 03:23:06;;;;;;;11.23;7.57;;;;;;;3.81;62.23;100896.50;5036812;28;20069;-75
2021/04/28 03:25:34;;;;;;;13.10;7.10;;;;;;;3.78;62.58;100892.13;5038869;28;20052;-75
2021/04/28 03:28:01;;;;;;;12.32;7.38;;;;;;;3.72;62.80;100890.38;5041258;28;20091;-75
2021/04/28 03:30:28;;;;;;;12.00;6.25;;;;;;;3.67;62.19;100886.88;5036420;28;20065;-76
2021/04/28 03:32:55;;;;;;;11.70;6.53;;;;;;;3.63;63.08;100895.69;5039557;28;20061;-75
2021/04/28 03:35:22;;;;;;;9.82;6.40;;;;;;;3.63;62.41;100895.69;5034615;28;20067;-75
2021/04/28 03:37:49;;;;;;;19.98;7.93;;;;;;;3.61;63.10;100894.81;5037965;28;20439;-75
2021/04/28 03:40:17;;;;;;;9.50;5.95;;;;;;;3.59;62.90;100896.56;5039582;28;20114;-75
2021/04/28 03:42:44;;;;;;;9.98;6.25;;;;;;;3.59;62.80;100899.19;5039344;28;20091;-74
2021/04/28 03:45:12;;;;;;;10.68;5.95;;;;;;;3.55;62.75;100892.19;5041013;28;20056;-76
2021/04/28 03:47:41;;;;;;;9.90;5.72;;;;;;;3.56;62.88;100899.22;5038378;28;20239;-76
2021/04/28 03:50:10;;;;;;;13.38;8.35;;;;;;;3.52;62.93;100892.19;5040953;28;20515;-75
2021/04/28 03:52:37;;;;;;;12.85;6.65;;;;;;;3.53;63.19;100900.09;5036361;28;20089;-77
2021/04/28 03:55:05;;;;;;;12.68;6.53;;;;;;;3.50;63.12;100894.81;5041875;28;20091;-74
2021/04/28 03:57:33;;;;;;;10.63;6.75;;;;;;;3.48;63.26;100898.38;5037055;28;20053;-76
2021/04/28 04:00:00;;;;;;;12.45;6.60;;;;;;;3.47;63.54;100904.50;5039110;28;20301;-75
2021/04/28 04:02:29;;;;;;;11.68;7.00;;;;;;;3.41;63.15;100889.59;5037947;28;20122;-76
2021/04/28 04:04:57;;;;;;;11.18;7.15;;;;;;;3.40;63.44;100894.84;5040024;28;20379;-75
2021/04/28 04:07:24;;;;;;;10.80;6.80;;;;;;;3.41;63.43;100894.84;5040198;28;20153;-75
2021/04/28 04:09:55;;;;;;;12.52;6.78;;;;;;;3.39;63.75;100885.19;5038303;28;20076;-75
2021/04/28 04:12:22;;;;;;;9.48;6.40;;;;;;;3.33;63.78;100886.06;5040457;28;20053;-76
2021/04/28 04:14:50;;;;;;;11.88;6.20;;;;;;;3.31;63.78;100893.97;5032641;28;20158;-75
2021/04/28 04:17:18;;;;;;;10.95;6.50;;;;;;;3.31;63.75;100883.44;5039416;28;20071;-74
2021/04/28 04:19:45;;;;;;;10.43;6.60;;;;;;;3.30;64.30;100878.16;5038307;28;20057;-75
2021/04/28 04:22:13;;;;;;;12.63;6.93;;;;;;;3.33;64.09;100884.31;5037359;28;20061;-76
2021/04/28 04:24:40;;;;;;;11.20;6.40;;;;;;;3.31;64.06;100877.28;5039880;28;20057;-75
2021/04/28 04:27:07;;;;;;;12.18;7.32;;;;;;;3.33;64.07;100879.03;5032321;28;20060;-76
2021/04/28 04:29:34;;;;;;;10.15;6.30;;;;;;;3.38;63.85;100879.03;5042456;28;20057;-77
2021/04/28 04:32:02;;;;;;;12.35;6.50;;;;;;;3.39;63.48;100872.88;5035764;28;20069;-76
2021/04/28 04:34:31;;;;;;;12.10;7.00;;;;;;;3.42;63.80;100880.75;5038787;28;20053;-78
2021/04/28 04:36:58;;;;;;;13.88;7.15;;;;;;;3.42;63.62;100867.56;5035644;28;20061;-76
2021/04/28 04:39:25;;;;;;;11.63;6.00;;;;;;;3.46;63.53;100871.97;5037506;28;20049;-76
2021/04/28 04:41:52;;;;;;;9.27;6.03;;;;;;;3.47;63.75;100879.00;5037811;28;20148;-75
2021/04/28 04:44:19;;;;;;;13.05;6.35;;;;;;;3.48;63.48;100877.25;5035001;28;20411;-76
2021/04/28 04:46:46;;;;;;;12.43;6.05;;;;;;;3.49;63.44;100876.34;5041322;28;20082;-76
2021/04/28 04:49:14;;;;;;;10.65;6.85;;;;;;;3.53;63.18;100868.44;5036743;28;20088;-71
2021/04/28 04:51:41;;;;;;;13.63;6.82;;;;;;;3.56;63.23;100872.84;5039548;28;20510;-75
2021/04/28 04:54:08;;;;;;;10.77;6.47;;;;;;;3.60;62.88;100871.94;5034844;28;20071;-76
2021/04/28 04:56:35;;;;;;;11.15;6.63;;;;;;;3.62;62.81;100862.25;5041610;28;20186;-75
2021/04/28 04:59:02;;;;;;;10.27;5.90;;;;;;;3.64;62.60;100863.13;5034776;28;20075;-75
2021/04/28 05:01:29;;;;;;;11.05;6.45;;;;;;;3.69;62.68;100866.63;5040951;28;20122;-75
2021/04/28 05:03:56;;;;;;;13.20;6.75;;;;;;;3.76;62.54;100877.16;5034886;28;20111;-76
2021/04/28 05:06:24;;;;;;;10.85;7.03;;;;;;;3.84;62.12;100864.81;5037772;28;20061;-76
2021/04/28 05:08:51;;;;;;;12.88;6.15;;;;;;;3.92;61.98;100870.97;5032265;28;20061;-75
2021/04/28 05:11:18;;;;;;;11.27;6.57;;;;;;;4.02;61.12;100870.03;5037313;28;20160;-75
2021/04/28 05:13:45;;;;;;;9.98;5.88;;;;;;;4.18;61.03;100875.25;5041233;28;20049;-76
2021/04/28 05:16:12;;;;;;;12.30;6.50;;;;;;;4.38;59.97;100873.38;5035094;28;22690;-76
2021/04/28 05:18:40;;;;;;;11.93;6.43;;;;;;;4.59;59.48;100868.81;5041651;28;20094;-76
2021/04/28 05:21:07;;;;;;;8.65;5.45;;;;;;;4.83;59.15;100873.03;5033688;28;20302;-75
2021/04/28 05:23:35;;;;;;;12.63;6.53;;;;;;;5.08;58.32;100868.44;5038196;28;20063;-76
2021/04/28 05:26:02;;;;;;;12.80;6.63;;;;;;;5.31;57.83;100869.97;5034588;28;20436;-74
2021/04/28 05:28:28;;;;;;;15.45;5.95;;;;;;;5.51;57.08;100880.38;5037712;28;20063;-74
2021/04/28 05:30:56;;;;;;;14.07;6.07;;;;;;;5.75;56.53;100874.78;5035067;28;20517;-76
2021/04/28 05:33:23;;;;;;;12.10;6.13;;;;;;;6.03;55.53;100871.84;5032723;28;20053;-72
2021/04/28 05:35:50;;;;;;;13.77;6.65;;;;;;;6.16;55.11;100875.22;5035472;28;20065;-74
2021/04/28 05:38:17;;;;;;;12.77;6.32;;;;;;;6.35;54.08;100871.44;5050917;28;20053;-75
2021/04/28 05:40:45;;;;;;;11.75;6.72;;;;;;;6.40;53.36;100870.47;5038313;28;20207;-75
2021/04/28 05:43:12;;;;;;;11.82;6.93;;;;;;;6.63;53.14;100867.50;5036276;28;20596;-74
2021/04/28 05:45:43;;;;;;;12.75;6.43;;;;;;;6.91;53.06;100860.84;5036337;28;20118;-74
2021/04/28 05:48:10;;;;;;;10.82;6.72;;;;;;;7.22;51.95;100864.72;5056836;28;20342;-73
2021/04/28 05:50:38;;;;;;;10.88;6.82;;;;;;;7.33;51.49;100869.88;5040402;28;20161;-73
2021/04/28 05:53:08;;;;;;;11.45;6.30;;;;;;;7.22;50.67;100870.03;5041505;28;20053;-74
2021/04/28 05:55:35;;;;;;;12.63;6.10;;;;;;;7.37;51.28;100864.47;5039303;28;20146;-70
2021/04/28 05:58:03;;;;;;;11.57;6.38;;;;;;;7.63;50.58;100861.31;5037197;28;20561;-70
2021/04/28 06:00:31;;;;;;;9.98;6.07;;;;;;;7.81;50.03;100868.03;5037234;28;20498;-70
2021/04/28 06:02:58;;;;;;;11.35;6.47;;;;;;;7.96;49.09;100869.50;5043263;28;20060;-73
2021/04/28 06:05:25;;;;;;;10.02;6.05;;;;;;;8.16;48.91;100866.44;5038653;28;20072;-75
2021/04/28 06:07:52;;;;;;;11.93;6.75;;;;;;;8.08;48.57;100872.81;5036004;28;20053;-74
2021/04/28 06:10:20;;;;;;;11.32;7.13;;;;;;;8.26;48.37;100867.13;5040023;28;20060;-74
2021/04/28 06:12:47;;;;;;;13.02;6.55;;;;;;;8.55;47.22;100861.16;5038191;28;20057;-75
2021/04/28 06:15:16;;;;;;;12.00;5.95;;;;;;;8.71;47.51;100859.00;5041020;28;20488;-75
2021/04/28 06:17:45;;;;;;;12.05;6.20;;;;;;;9.05;46.22;100860.84;5037126;28;20061;-75
2021/04/28 06:20:14;;;;;;;11.73;6.82;;;;;;;8.91;46.63;100863.84;5044281;28;20057;-74
2021/04/28 06:22:42;;;;;;;8.60;5.78;;;;;;;9.17;46.14;100862.31;5038691;28;20065;-71
2021/04/28 06:25:09;;;;;;;13.15;7.40;;;;;;;9.20;45.58;100864.03;5040797;28;20068;-70
2021/04/28 06:27:37;;;;;;;11.88;6.55;;;;;;;9.19;45.18;100863.13;5034213;28;20076;-70
2021/04/28 06:30:06;;;;;;;12.63;6.93;;;;;;;8.71;46.02;100856.34;5041632;28;20118;-70
2021/04/28 06:32:35;;;;;;;11.82;7.10;;;;;;;8.97;46.04;100861.03;5038405;28;20065;-69
2021/04/28 06:35:04;;;;;;;12.20;5.93;;;;;;;9.63;44.84;100863.75;5041915;28;20652;-69
2021/04/28 06:37:31;;;;;;;10.27;6.70;;;;;;;9.67;44.23;100872.50;5043879;28;20881;-74
2021/04/28 06:39:58;;;;;;;10.93;6.95;;;;;;;9.85;44.41;100853.34;5037990;28;20064;-73
2021/04/28 06:42:25;;;;;;;10.65;6.63;;;;;;;9.83;43.54;100868.50;5040797;28;20156;-74
2021/04/28 06:44:52;;;;;;;9.75;6.45;;;;;;;9.99;43.12;100858.28;5038728;28;20064;-75
2021/04/28 06:47:19;;;;;;;11.23;6.60;;;;;;;10.23;42.69;100855.78;5040499;28;20060;-74
2021/04/28 06:49:47;;;;;;;10.38;6.30;;;;;;;10.59;42.50;100839.59;5037536;28;20060;-74
2021/04/28 06:52:14;;;;;;;11.25;6.60;;;;;;;10.41;42.37;100836.59;5040074;28;20052;-75
2021/04/28 06:54:42;;;;;;;11.25;7.05;;;;;;;10.79;41.59;100841.63;5038875;28;20064;-70
2021/04/28 06:57:09;;;;;;;10.68;6.32;;;;;;;11.25;40.75;100833.84;5037349;28;20455;-69
2021/04/28 06:59:35;;;;;;;15.00;6.50;;;;;;;11.07;41.28;100822.91;5039085;28;20133;-69
2021/04/28 07:02:03;;;;;;;11.20;6.50;;;;;;;11.01;40.56;100829.28;5038177;28;20140;-69
2021/04/28 07:04:31;;;;;;;12.35;6.93;;;;;;;11.13;41.08;100830.69;5038159;28;20064;-69
2021/04/28 07:06:59;;;;;;;13.00;7.30;;;;;;;11.47;41.09;100839.31;5039121;28;20057;-69
2021/04/28 07:09:26;;;;;;;10.63;7.05;;;;;;;11.32;41.10;100824.69;5036818;28;20067;-69
2021/04/28 07:11:53;;;;;;;11.73;7.07;;;;;;;11.35;41.25;100816.56;5054185;28;20108;-69
2021/04/28 07:14:21;;;;;;;13.10;7.43;;;;;;;11.43;40.31;100816.31;5034937;28;20124;-69
2021/04/28 07:16:48;;;;;;;12.52;7.20;;;;;;;11.81;40.33;100817.56;5042268;28;20061;-69
2021/04/28 07:19:15;;;;;;;12.73;7.35;;;;;;;11.71;40.22;100824.19;5038220;28;20060;-69
2021/04/28 07:21:42;;;;;;;12.25;6.85;;;;;;;12.06;39.91;100822.03;5034513;28;20350;-69
2021/04/28 07:24:10;;;;;;;10.60;7.00;;;;;;;11.98;39.29;100835.69;5036249;28;20053;-69
2021/04/28 07:26:38;;;;;;;11.40;7.47;;;;;;;12.40;39.14;100826.91;5037388;28;20056;-69
2021/04/28 07:29:05;;;;;;;11.07;7.63;;;;;;;12.21;39.07;100837.47;5038739;28;20057;-69
2021/04/28 07:31:31;;;;;;;12.80;7.93;;;;;;;12.58;38.95;100819.06;5036826;28;20056;-69
2021/04/28 07:33:59;;;;;;;13.25;7.75;;;;;;;12.34;38.32;100827.16;5041362;28;20079;-69
2021/04/28 07:36:27;;;;;;;10.57;6.68;;;;;;;12.43;38.69;100825.91;5035559;28;20057;-69
2021/04/28 07:38:55;;;;;;;14.35;7.63;;;;;;;12.89;38.01;100824.91;5041175;28;20067;-68
2021/04/28 07:41:22;;;;;;;11.85;7.28;;;;;;;12.60;38.07;100817.19;5035867;28;20057;-69
2021/04/28 07:43:49;;;;;;;13.70;7.93;;;;;;;12.40;38.08;100818.03;5037209;28;20057;-68
2021/04/28 07:46:16;;;;;;;11.68;7.80;;;;;;;12.44;38.21;100817.81;5035620;28;20093;-69
2021/04/28 07:48:43;;;;;;;11.40;7.50;;;;;;;12.68;38.25;100817.75;5041643;28;20101;-74
2021/04/28 07:51:10;;;;;;;11.23;7.15;;;;;;;13.08;37.32;100819.66;5036707;28;20607;-75
2021/04/28 07:53:38;;;;;;;13.32;7.63;;;;;;;13.34;36.88;100820.34;5037146;28;20057;-70
2021/04/28 07:56:05;;;;;;;13.27;7.60;;;;;;;13.42;35.94;100825.41;5038887;28;20649;-70
2021/04/28 07:58:32;;;;;;;12.07;7.53;;;;;;;13.21;36.23;100825.34;5036729;28;20056;-70
2021/04/28 08:00:59;;;;;;;13.23;7.82;;;;;;;13.20;36.71;100822.75;5038418;28;20159;-70
2021/04/28 08:03:27;;;;;;;12.98;7.30;;;;;;;13.23;37.21;100825.31;5034174;28;20183;-73
2021/04/28 08:05:55;;;;;;;9.98;6.88;;;;;;;13.39;36.83;100825.53;5029975;28;20057;-71
2021/04/28 08:08:22;;;;;;;11.63;8.30;;;;;;;13.45;36.74;100823.44;5032600;28;20169;-70
2021/04/28 08:10:49;;;;;;;11.50;7.10;;;;;;;14.06;36.09;100818.03;5032557;28;20773;-70
2021/04/28 08:13:16;;;;;;;11.18;7.30;;;;;;;13.83;35.37;100819.97;5034830;28;20061;-70
2021/04/28 08:15:45;;;;;;;11.48;7.38;;;;;;;14.08;35.72;100819.72;5035550;28;20506;-70
2021/04/28 08:18:12;;;;;;;13.68;7.57;;;;;;;14.13;35.23;100814.09;5034065;28;20064;-70
2021/04/28 08:20:39;;;;;;;11.93;7.43;;;;;;;14.06;35.20;100810.84;5035043;28;20057;-71
2021/04/28 08:23:06;;;;;;;13.05;6.82;;;;;;;14.41;35.06;100804.75;5036087;28;20053;-71
2021/04/28 08:25:34;;;;;;;9.93;7.38;;;;;;;14.82;34.20;100802.72;5034045;28;20084;-71
2021/04/28 08:28:01;;;;;;;13.95;8.55;;;;;;;14.93;33.74;100795.00;5032506;28;20364;-70
2021/04/28 08:30:29;;;;;;;11.68;7.70;;;;;;;15.41;33.25;100788.94;5035164;28;20510;-70
2021/04/28 08:33:13;;;;;;;12.00;7.75;;;;;;;14.88;33.87;100778.25;5049568;28;20379;-70
2021/04/28 08:35:42;;;;;;;12.50;7.90;;;;;;;14.43;33.77;100786.75;5034893;28;20152;-70
2021/04/28 08:38:09;;;;;;;10.88;6.88;;;;;;;14.13;34.75;100779.22;5034110;28;20061;-69
2021/04/28 08:40:36;;;;;;;11.50;7.57;;;;;;;13.99;34.40;100783.44;5034284;28;20057;-69
2021/04/28 08:43:04;;;;;;;12.45;7.25;;;;;;;14.65;33.61;100783.91;5037721;28;20065;-69
2021/04/28 08:45:37;;;;;;;10.98;8.07;;;;;;;14.21;33.65;100785.09;5034986;28;20060;-73
2021/04/28 08:48:05;;;;;;;11.65;7.20;;;;;;;13.79;35.10;100773.66;5039967;28;20060;-70
2021/04/28 08:50:33;;;;;;;14.18;7.72;;;;;;;13.55;35.77;100782.81;5034837;28;20391;-69
2021/04/28 08:53:01;;;;;;;12.55;7.55;;;;;;;13.41;34.96;100781.63;5034493;28;20152;-70
2021/04/28 08:55:28;;;;;;;11.70;8.20;;;;;;;13.35;35.51;100776.56;5032975;28;20057;-70
2021/04/28 08:57:55;;;;;;;12.45;7.75;;;;;;;14.36;34.35;100770.06;5037035;28;20472;-69
2021/04/28 09:00:23;;;;;;;12.00;8.00;;;;;;;14.91;33.64;100769.16;5033858;28;20053;-69
2021/04/28 09:02:51;;;;;;;11.07;7.13;;;;;;;14.87;33.93;100773.81;5037518;28;20059;-70
2021/04/28 09:05:19;;;;;;;12.93;7.93;;;;;;;13.94;34.49;100772.03;5033043;28;20136;-69
2021/04/28 09:07:47;;;;;;;11.95;7.70;;;;;;;13.81;35.19;100779.81;5034603;28;20144;-68
2021/04/28 09:10:16;;;;;;;11.95;7.65;;;;;;;14.49;34.03;100768.53;5029572;28;20064;-68
2021/04/28 09:12:51;;;;;;;12.18;8.13;;;;;;;14.66;34.00;100762.34;5035628;28;20061;-69
2021/04/28 09:15:32;;;;;;;12.27;7.88;;;;;;;14.17;33.68;100759.38;5034097;28;20088;-69
2021/04/28 09:17:59;;;;;;;11.32;7.55;;;;;;;14.06;34.57;100767.06;5036797;28;20061;-69
2021/04/28 09:20:30;;;;;;;11.63;7.97;;;;;;;14.31;34.59;100764.06;5033896;28;20057;-69
2021/04/28 09:23:11;;;;;;;13.20;8.88;;;;;;;14.27;34.33;100757.97;5041591;28;20172;-70
2021/04/28 09:25:42;;;;;;;12.15;7.82;;;;;;;14.16;34.69;100755.78;5037206;28;20057;-70
2021/04/28 09:28:28;;;;;;;18.13;8.23;;;;;;;14.10;35.25;100750.75;5042119;28;20049;-70
2021/04/28 09:31:15;;;;;;;11.75;7.43;;;;;;;14.02;35.54;100753.78;5053295;28;20581;-69
2021/04/28 09:33:50;;;;;;;14.27;8.55;;;;;;;13.90;35.04;100740.97;5042274;28;20060;-70
2021/04/28 09:36:25;;;;;;;12.68;8.45;;;;;;;14.16;34.92;100742.38;5038252;28;20061;-70
2021/04/28 09:38:54;;;;;;;12.73;8.57;;;;;;;14.37;34.90;100735.09;5041952;28;20059;-70
2021/04/28 09:41:36;;;;;;;13.38;8.23;;;;;;;13.86;34.77;100733.13;5038591;28;20053;-76
2021/04/28 09:44:21;;;;;;;13.10;8.52;;;;;;;14.05;34.97;100725.09;5040955;28;20064;-74
2021/04/28 09:47:05;;;;;;;12.23;8.05;;;;;;;13.91;35.28;100740.03;5037267;28;20459;-76
2021/04/28 09:49:59;;;;;;;14.93;9.73;;;;;;;13.93;35.13;100731.91;5042226;28;20061;-75
2021/04/28 09:52:42;;;;;;;13.55;8.23;;;;;;;14.17;34.98;100733.41;5038855;28;20522;-75
2021/04/28 09:55:12;;;;;;;13.23;8.95;;;;;;;13.91;34.93;100739.13;5040411;28;20089;-76
2021/04/28 09:57:41;;;;;;;13.77;8.75;;;;;;;14.41;34.91;100732.28;5037227;28;20053;-75
2021/04/28 10:00:17;;;;;;;13.38;8.73;;;;;;;14.72;34.60;100731.63;5040273;28;20184;-76
2021/04/28 10:02:51;;;;;;;13.18;8.52;;;;;;;14.98;33.61;100732.09;5037552;28;20061;-76
2021/04/28 10:05:23;;;;;;;12.70;8.45;;;;;;;15.64;32.69;100726.72;5043267;28;20533;-76
2021/04/28 10:08:06;;;;;;;12.38;8.27;;;;;;;15.22;33.21;100717.38;5037919;28;20443;-70
2021/04/28 10:10:34;;;;;;;14.48;8.52;;;;;;;15.37;33.18;100712.97;5041884;28;20115;-70
2021/04/28 10:13:01;;;;;;;13.30;8.43;;;;;;;15.47;33.47;100708.81;5036719;28;20065;-69
2021/04/28 10:15:28;;;;;;;12.82;8.63;;;;;;;16.28;32.24;100705.25;5038746;28;20061;-69
2021/04/28 10:17:56;;;;;;;12.98;7.93;;;;;;;16.61;31.78;100705.09;5038231;28;20067;-69
2021/04/28 10:20:23;;;;;;;11.73;8.32;;;;;;;16.76;31.45;100708.69;5039859;28;20436;-69
2021/04/28 10:22:55;;;;;;;11.45;8.07;;;;;;;16.33;32.11;100708.56;5039422;28;20068;-69
2021/04/28 10:25:22;;;;;;;13.32;7.95;;;;;;;15.93;32.24;100712.66;5039492;28;20068;-69
2021/04/28 10:27:51;;;;;;;14.90;8.52;;;;;;;16.42;32.00;100704.44;5039364;28;20400;-70
2021/04/28 10:30:18;;;;;;;11.73;8.80;;;;;;;16.81;31.64;100703.91;5038773;28;20053;-69
2021/04/28 10:32:45;;;;;;;12.07;8.48;;;;;;;16.48;31.74;100705.91;5036972;28;20057;-70
2021/04/28 10:35:16;;;;;;;14.43;8.27;;;;;;;16.86;31.44;100694.72;5040448;28;20057;-70
2021/04/28 10:37:49;;;;;;;14.40;9.13;;;;;;;16.54;31.23;100700.16;5039159;28;20062;-70
2021/04/28 10:40:17;;;;;;;;;;;;;;;16.93;30.64;100698.75;5036209;28;20382;-70
2021/04/28 10:42:44;;;;;;;13.40;8.20;;;;;;;16.81;31.11;100700.34;5038527;28;20007;-70
2021/04/28 10:45:30;;;;;;;13.52;8.38;;;;;;;16.88;30.78;100700.88;5036700;28;20057;-69
2021/04/28 10:47:57;;;;;;;13.38;8.98;;;;;;;16.95;30.71;100692.31;5039572;28;20061;-69
2021/04/28 10:50:27;;;;;;;15.88;9.15;;;;;;;17.17;30.38;100696.38;5036310;28;20061;-75
2021/04/28 10:52:58;;;;;;;13.48;9.10;;;;;;;17.27;29.63;100694.84;5043067;28;20134;-78
2021/04/28 10:55:49;;;;;;;15.70;9.27;;;;;;;17.53;29.67;100677.00;5035786;28;20398;-76
2021/04/28 10:58:49;;;;;;;12.82;8.48;;;;;;;17.61;29.08;100672.97;5053163;28;20527;-72
2021/04/28 11:01:36;;;;;;;12.30;8.43;;;;;;;17.82;29.30;100673.41;5038117;28;20065;-74
2021/04/28 11:04:13;;;;;;;13.98;9.05;;;;;;;17.66;30.62;100671.72;5039720;28;20056;-74
2021/04/28 11:06:44;;;;;;;13.45;9.20;;;;;;;18.20;29.99;100670.03;5039890;28;20462;-73
2021/04/28 11:09:18;;;;;;;12.75;8.48;;;;;;;18.90;28.92;100660.81;5033068;28;20380;-73
2021/04/28 11:11:55;;;;;;;;;;;;;;;18.58;29.40;100663.91;5038509;28;20442;-71
2021/04/28 11:14:41;;;;;;;13.73;8.70;;;;;;;18.58;29.22;100653.97;5035462;28;19924;-72
2021/04/28 11:17:29;;;;;;;14.80;9.30;;;;;;;18.24;29.74;100661.66;5036047;28;20061;-71
2021/04/28 11:20:12;;;;;;;13.10;9.98;;;;;;;18.41;29.22;100655.09;5035438;28;20076;-72
2021/04/28 11:22:39;;;;;;;15.70;9.10;;;;;;;18.07;29.67;100654.66;5037227;28;20088;-72
2021/04/28 11:25:16;;;;;;;14.85;8.95;;;;;;;17.74;30.78;100660.41;5037657;28;20073;-73
2021/04/28 11:28:02;;;;;;;12.55;9.10;;;;;;;17.59;31.03;100661.41;5038381;28;20500;-72
2021/04/28 11:30:33;;;;;;;13.00;9.40;;;;;;;17.02;30.37;100665.00;5037123;28;20156;-76
2021/04/28 11:33:12;;;;;;;14.02;8.65;;;;;;;16.88;31.50;100661.31;5038548;28;20057;-75